sensor_id;sensor_type;location;lat;lon;timestamp;P1;durP1;ratioP1;P2;durP2;ratioP2
19739;SDS011;10027;51.066;13.768;2023-12-20T00:01:20;3.30;;;2.03;;
19739;SDS011;10027;51.066;13.768;2023-12-20T00:03:48;2.93;;;2.10;;
19739;SDS011;10027;51.066;13.768;2023-12-20T00:06:15;3.50;;;2.10;;
19739;SDS011;10027;51.066;13.768;2023-12-20T00:08:42;1.93;;;1.70;;
19739;SDS011;10027;51.066;13.768;2023-12-20T00:11:10;2.70;;;2.00;;
19739;SDS011;10027;51.066;13.768;2023-12-20T00:13:37;4.00;;;2.13;;
19739;SDS011;10027;51.066;13.768;2023-12-20T00:16:04;2.47;;;2.10;;
19739;SDS011;10027;51.066;13.768;2023-12-20T00:18:31;2.53;;;2.00;;
19739;SDS011;10027;51.066;13.768;2023-12-20T00:21:00;3.10;;;2.07;;
19739;SDS011;10027;51.066;13.768;2023-12-20T00:23:27;2.20;;;1.80;;
19739;SDS011;10027;51.066;13.768;2023-12-20T00:25:54;4.10;;;1.80;;
19739;SDS011;10027;51.066;13.768;2023-12-20T00:28:22;2.10;;;1.70;;
19739;SDS011;10027;51.066;13.768;2023-12-20T00:30:49;2.63;;;1.80;;
19739;SDS011;10027;51.066;13.768;2023-12-20T00:33:17;3.70;;;1.87;;
19739;SDS011;10027;51.066;13.768;2023-12-20T00:35:44;1.63;;;1.50;;
19739;SDS011;10027;51.066;13.768;2023-12-20T00:38:11;1.93;;;1.63;;
19739;SDS011;10027;51.066;13.768;2023-12-20T00:40:38;2.13;;;1.60;;
19739;SDS011;10027;51.066;13.768;2023-12-20T00:43:05;2.40;;;2.10;;
19739;SDS011;10027;51.066;13.768;2023-12-20T00:45:32;2.43;;;1.57;;
19739;SDS011;10027;51.066;13.768;2023-12-20T00:48:00;4.00;;;1.80;;
19739;SDS011;10027;51.066;13.768;2023-12-20T00:50:27;2.90;;;1.43;;
19739;SDS011;10027;51.066;13.768;2023-12-20T00:52:55;2.00;;;1.37;;
19739;SDS011;10027;51.066;13.768;2023-12-20T00:55:23;1.60;;;1.00;;
19739;SDS011;10027;51.066;13.768;2023-12-20T00:57:50;1.33;;;1.17;;
19739;SDS011;10027;51.066;13.768;2023-12-20T01:00:18;2.00;;;1.40;;
19739;SDS011;10027;51.066;13.768;2023-12-20T01:02:45;1.40;;;1.00;;
19739;SDS011;10027;51.066;13.768;2023-12-20T01:05:15;1.87;;;1.20;;
19739;SDS011;10027;51.066;13.768;2023-12-20T01:07:43;1.90;;;1.20;;
19739;SDS011;10027;51.066;13.768;2023-12-20T01:10:11;1.70;;;1.20;;
19739;SDS011;10027;51.066;13.768;2023-12-20T01:12:38;1.70;;;1.37;;
19739;SDS011;10027;51.066;13.768;2023-12-20T01:15:05;1.73;;;1.27;;
19739;SDS011;10027;51.066;13.768;2023-12-20T01:17:32;1.30;;;1.10;;
19739;SDS011;10027;51.066;13.768;2023-12-20T01:20:00;2.43;;;1.10;;
19739;SDS011;10027;51.066;13.768;2023-12-20T01:22:27;1.37;;;1.23;;
19739;SDS011;10027;51.066;13.768;2023-12-20T01:24:54;1.33;;;1.23;;
19739;SDS011;10027;51.066;13.768;2023-12-20T01:27:21;1.53;;;1.10;;
19739;SDS011;10027;51.066;13.768;2023-12-20T01:29:49;1.33;;;0.97;;
19739;SDS011;10027;51.066;13.768;2023-12-20T01:32:16;1.00;;;0.90;;
19739;SDS011;10027;51.066;13.768;2023-12-20T01:34:43;1.70;;;1.00;;
19739;SDS011;10027;51.066;13.768;2023-12-20T01:37:10;1.77;;;0.90;;
19739;SDS011;10027;51.066;13.768;2023-12-20T01:39:37;1.10;;;0.93;;
19739;SDS011;10027;51.066;13.768;2023-12-20T01:42:04;1.20;;;0.83;;
19739;SDS011;10027;51.066;13.768;2023-12-20T01:44:31;1.10;;;0.93;;
19739;SDS011;10027;51.066;13.768;2023-12-20T01:46:59;1.27;;;0.90;;
19739;SDS011;10027;51.066;13.768;2023-12-20T01:49:26;1.40;;;0.90;;
19739;SDS011;10027;51.066;13.768;2023-12-20T01:51:54;1.20;;;0.90;;
19739;SDS011;10027;51.066;13.768;2023-12-20T01:54:22;1.70;;;0.90;;
19739;SDS011;10027;51.066;13.768;2023-12-20T01:56:49;1.00;;;0.80;;
19739;SDS011;10027;51.066;13.768;2023-12-20T01:59:17;1.10;;;0.90;;
19739;SDS011;10027;51.066;13.768;2023-12-20T02:01:45;1.83;;;0.83;;
19739;SDS011;10027;51.066;13.768;2023-12-20T02:04:12;1.13;;;0.60;;
19739;SDS011;10027;51.066;13.768;2023-12-20T02:06:40;0.80;;;0.80;;
19739;SDS011;10027;51.066;13.768;2023-12-20T02:09:07;0.77;;;0.60;;
19739;SDS011;10027;51.066;13.768;2023-12-20T02:11:35;0.73;;;0.60;;
19739;SDS011;10027;51.066;13.768;2023-12-20T02:14:02;0.77;;;0.60;;
19739;SDS011;10027;51.066;13.768;2023-12-20T02:16:30;0.83;;;0.70;;
19739;SDS011;10027;51.066;13.768;2023-12-20T02:18:57;1.00;;;0.73;;
19739;SDS011;10027;51.066;13.768;2023-12-20T02:21:25;0.70;;;0.60;;
19739;SDS011;10027;51.066;13.768;2023-12-20T02:23:52;0.50;;;0.43;;
19739;SDS011;10027;51.066;13.768;2023-12-20T02:26:19;1.30;;;0.90;;
19739;SDS011;10027;51.066;13.768;2023-12-20T02:28:46;1.03;;;0.30;;
19739;SDS011;10027;51.066;13.768;2023-12-20T02:31:13;2.23;;;0.40;;
19739;SDS011;10027;51.066;13.768;2023-12-20T02:33:40;3.93;;;0.70;;
19739;SDS011;10027;51.066;13.768;2023-12-20T02:36:08;0.60;;;0.60;;
19739;SDS011;10027;51.066;13.768;2023-12-20T02:38:35;0.33;;;0.33;;
19739;SDS011;10027;51.066;13.768;2023-12-20T02:41:02;1.13;;;0.57;;
19739;SDS011;10027;51.066;13.768;2023-12-20T02:43:29;0.60;;;0.50;;
19739;SDS011;10027;51.066;13.768;2023-12-20T02:45:57;0.63;;;0.50;;
19739;SDS011;10027;51.066;13.768;2023-12-20T02:48:24;0.50;;;0.40;;
19739;SDS011;10027;51.066;13.768;2023-12-20T02:50:51;0.60;;;0.40;;
19739;SDS011;10027;51.066;13.768;2023-12-20T02:53:18;0.77;;;0.50;;
19739;SDS011;10027;51.066;13.768;2023-12-20T02:55:45;0.67;;;0.50;;
19739;SDS011;10027;51.066;13.768;2023-12-20T02:58:12;0.70;;;0.50;;
19739;SDS011;10027;51.066;13.768;2023-12-20T03:00:40;0.50;;;0.50;;
19739;SDS011;10027;51.066;13.768;2023-12-20T03:03:07;0.63;;;0.50;;
19739;SDS011;10027;51.066;13.768;2023-12-20T03:05:34;0.43;;;0.40;;
19739;SDS011;10027;51.066;13.768;2023-12-20T03:08:01;0.63;;;0.50;;
19739;SDS011;10027;51.066;13.768;2023-12-20T03:10:28;2.07;;;0.40;;
19739;SDS011;10027;51.066;13.768;2023-12-20T03:12:55;1.17;;;0.50;;
19739;SDS011;10027;51.066;13.768;2023-12-20T03:15:23;0.40;;;0.40;;
19739;SDS011;10027;51.066;13.768;2023-12-20T03:17:50;0.40;;;0.40;;
19739;SDS011;10027;51.066;13.768;2023-12-20T03:20:17;0.43;;;0.33;;
19739;SDS011;10027;51.066;13.768;2023-12-20T03:22:44;0.60;;;0.40;;
19739;SDS011;10027;51.066;13.768;2023-12-20T03:25:11;0.73;;;0.50;;
19739;SDS011;10027;51.066;13.768;2023-12-20T03:27:39;0.40;;;0.40;;
19739;SDS011;10027;51.066;13.768;2023-12-20T03:30:06;1.00;;;0.30;;
19739;SDS011;10027;51.066;13.768;2023-12-20T03:32:33;0.70;;;0.50;;
19739;SDS011;10027;51.066;13.768;2023-12-20T03:35:01;1.10;;;0.53;;
19739;SDS011;10027;51.066;13.768;2023-12-20T03:37:28;0.37;;;0.37;;
19739;SDS011;10027;51.066;13.768;2023-12-20T03:39:55;0.73;;;0.53;;
19739;SDS011;10027;51.066;13.768;2023-12-20T03:42:22;0.43;;;0.40;;
19739;SDS011;10027;51.066;13.768;2023-12-20T03:44:49;0.70;;;0.40;;
19739;SDS011;10027;51.066;13.768;2023-12-20T03:47:17;0.50;;;0.40;;
19739;SDS011;10027;51.066;13.768;2023-12-20T03:49:44;0.53;;;0.30;;
19739;SDS011;10027;51.066;13.768;2023-12-20T03:52:11;0.33;;;0.30;;
19739;SDS011;10027;51.066;13.768;2023-12-20T03:54:38;0.63;;;0.30;;
19739;SDS011;10027;51.066;13.768;2023-12-20T03:57:06;0.80;;;0.40;;
19739;SDS011;10027;51.066;13.768;2023-12-20T03:59:36;0.70;;;0.47;;
19739;SDS011;10027;51.066;13.768;2023-12-20T04:02:03;0.50;;;0.40;;
19739;SDS011;10027;51.066;13.768;2023-12-20T04:04:31;0.40;;;0.33;;
19739;SDS011;10027;51.066;13.768;2023-12-20T04:06:58;0.60;;;0.40;;
19739;SDS011;10027;51.066;13.768;2023-12-20T04:09:26;0.77;;;0.40;;
19739;SDS011;10027;51.066;13.768;2023-12-20T04:11:53;0.60;;;0.30;;
19739;SDS011;10027;51.066;13.768;2023-12-20T04:14:20;0.70;;;0.30;;
19739;SDS011;10027;51.066;13.768;2023-12-20T04:16:47;0.50;;;0.30;;
19739;SDS011;10027;51.066;13.768;2023-12-20T04:19:14;0.73;;;0.40;;
19739;SDS011;10027;51.066;13.768;2023-12-20T04:21:41;0.30;;;0.30;;
19739;SDS011;10027;51.066;13.768;2023-12-20T04:24:08;0.57;;;0.30;;
19739;SDS011;10027;51.066;13.768;2023-12-20T04:26:36;1.10;;;0.60;;
19739;SDS011;10027;51.066;13.768;2023-12-20T04:29:03;0.50;;;0.30;;
19739;SDS011;10027;51.066;13.768;2023-12-20T04:31:30;0.90;;;0.50;;
19739;SDS011;10027;51.066;13.768;2023-12-20T04:33:57;0.83;;;0.50;;
19739;SDS011;10027;51.066;13.768;2023-12-20T04:36:24;0.90;;;0.50;;
19739;SDS011;10027;51.066;13.768;2023-12-20T04:38:53;0.73;;;0.50;;
19739;SDS011;10027;51.066;13.768;2023-12-20T04:41:20;0.40;;;0.40;;
19739;SDS011;10027;51.066;13.768;2023-12-20T04:43:47;0.73;;;0.47;;
19739;SDS011;10027;51.066;13.768;2023-12-20T04:46:14;0.77;;;0.50;;
19739;SDS011;10027;51.066;13.768;2023-12-20T04:48:42;0.87;;;0.40;;
19739;SDS011;10027;51.066;13.768;2023-12-20T04:51:09;0.40;;;0.40;;
19739;SDS011;10027;51.066;13.768;2023-12-20T04:53:36;0.40;;;0.40;;
19739;SDS011;10027;51.066;13.768;2023-12-20T04:56:03;0.43;;;0.30;;
19739;SDS011;10027;51.066;13.768;2023-12-20T04:58:30;0.40;;;0.40;;
19739;SDS011;10027;51.066;13.768;2023-12-20T05:00:57;1.60;;;0.50;;
19739;SDS011;10027;51.066;13.768;2023-12-20T05:03:25;0.40;;;0.40;;
19739;SDS011;10027;51.066;13.768;2023-12-20T05:05:52;0.77;;;0.50;;
19739;SDS011;10027;51.066;13.768;2023-12-20T05:08:19;0.90;;;0.40;;
19739;SDS011;10027;51.066;13.768;2023-12-20T05:10:46;0.60;;;0.50;;
19739;SDS011;10027;51.066;13.768;2023-12-20T05:13:13;0.47;;;0.40;;
19739;SDS011;10027;51.066;13.768;2023-12-20T05:15:41;0.70;;;0.40;;
19739;SDS011;10027;51.066;13.768;2023-12-20T05:18:08;0.30;;;0.20;;
19739;SDS011;10027;51.066;13.768;2023-12-20T05:20:36;0.67;;;0.40;;
19739;SDS011;10027;51.066;13.768;2023-12-20T05:23:03;0.50;;;0.50;;
19739;SDS011;10027;51.066;13.768;2023-12-20T05:25:30;1.23;;;0.53;;
19739;SDS011;10027;51.066;13.768;2023-12-20T05:27:57;1.33;;;0.50;;
19739;SDS011;10027;51.066;13.768;2023-12-20T05:30:25;1.63;;;0.60;;
19739;SDS011;10027;51.066;13.768;2023-12-20T05:32:52;0.33;;;0.33;;
19739;SDS011;10027;51.066;13.768;2023-12-20T05:35:20;0.80;;;0.43;;
19739;SDS011;10027;51.066;13.768;2023-12-20T05:37:49;0.60;;;0.50;;
19739;SDS011;10027;51.066;13.768;2023-12-20T05:40:16;1.73;;;0.70;;
19739;SDS011;10027;51.066;13.768;2023-12-20T05:42:43;0.43;;;0.40;;
19739;SDS011;10027;51.066;13.768;2023-12-20T05:45:10;1.73;;;0.67;;
19739;SDS011;10027;51.066;13.768;2023-12-20T05:47:37;0.60;;;0.40;;
19739;SDS011;10027;51.066;13.768;2023-12-20T05:50:05;0.60;;;0.50;;
19739;SDS011;10027;51.066;13.768;2023-12-20T05:52:32;0.70;;;0.43;;
19739;SDS011;10027;51.066;13.768;2023-12-20T05:54:59;0.60;;;0.50;;
19739;SDS011;10027;51.066;13.768;2023-12-20T05:57:29;0.90;;;0.70;;
19739;SDS011;10027;51.066;13.768;2023-12-20T05:59:56;1.27;;;0.50;;
19739;SDS011;10027;51.066;13.768;2023-12-20T06:02:24;1.97;;;0.80;;
19739;SDS011;10027;51.066;13.768;2023-12-20T06:04:51;0.87;;;0.70;;
19739;SDS011;10027;51.066;13.768;2023-12-20T06:07:18;0.67;;;0.67;;
19739;SDS011;10027;51.066;13.768;2023-12-20T06:09:45;0.87;;;0.60;;
19739;SDS011;10027;51.066;13.768;2023-12-20T06:12:13;0.70;;;0.57;;
19739;SDS011;10027;51.066;13.768;2023-12-20T06:14:40;1.93;;;0.80;;
19739;SDS011;10027;51.066;13.768;2023-12-20T06:17:07;0.87;;;0.83;;
19739;SDS011;10027;51.066;13.768;2023-12-20T06:19:34;3.10;;;0.83;;
19739;SDS011;10027;51.066;13.768;2023-12-20T06:22:01;1.33;;;0.70;;
19739;SDS011;10027;51.066;13.768;2023-12-20T06:24:28;1.60;;;0.73;;
19739;SDS011;10027;51.066;13.768;2023-12-20T06:26:56;1.00;;;0.87;;
19739;SDS011;10027;51.066;13.768;2023-12-20T06:29:23;2.57;;;0.90;;
19739;SDS011;10027;51.066;13.768;2023-12-20T06:31:50;1.47;;;0.90;;
19739;SDS011;10027;51.066;13.768;2023-12-20T06:34:17;1.27;;;1.00;;
19739;SDS011;10027;51.066;13.768;2023-12-20T06:36:44;2.53;;;1.10;;
19739;SDS011;10027;51.066;13.768;2023-12-20T06:39:12;1.30;;;1.20;;
19739;SDS011;10027;51.066;13.768;2023-12-20T06:41:40;1.87;;;0.90;;
19739;SDS011;10027;51.066;13.768;2023-12-20T06:44:07;2.20;;;1.07;;
19739;SDS011;10027;51.066;13.768;2023-12-20T06:46:34;2.67;;;1.20;;
19739;SDS011;10027;51.066;13.768;2023-12-20T06:49:01;1.73;;;1.20;;
19739;SDS011;10027;51.066;13.768;2023-12-20T06:51:29;1.23;;;1.13;;
19739;SDS011;10027;51.066;13.768;2023-12-20T06:53:57;1.30;;;1.20;;
19739;SDS011;10027;51.066;13.768;2023-12-20T06:56:24;3.67;;;1.40;;
19739;SDS011;10027;51.066;13.768;2023-12-20T06:58:51;2.70;;;1.53;;
19739;SDS011;10027;51.066;13.768;2023-12-20T07:01:18;1.60;;;1.23;;
19739;SDS011;10027;51.066;13.768;2023-12-20T07:03:45;2.37;;;1.37;;
19739;SDS011;10027;51.066;13.768;2023-12-20T07:06:13;1.83;;;1.23;;
19739;SDS011;10027;51.066;13.768;2023-12-20T07:08:42;2.77;;;1.40;;
19739;SDS011;10027;51.066;13.768;2023-12-20T07:11:09;1.37;;;1.10;;
19739;SDS011;10027;51.066;13.768;2023-12-20T07:13:37;1.50;;;1.40;;
19739;SDS011;10027;51.066;13.768;2023-12-20T07:16:05;1.87;;;1.40;;
19739;SDS011;10027;51.066;13.768;2023-12-20T07:18:32;2.57;;;1.80;;
19739;SDS011;10027;51.066;13.768;2023-12-20T07:20:59;2.80;;;1.50;;
19739;SDS011;10027;51.066;13.768;2023-12-20T07:23:26;3.07;;;1.63;;
19739;SDS011;10027;51.066;13.768;2023-12-20T07:25:54;2.30;;;1.90;;
19739;SDS011;10027;51.066;13.768;2023-12-20T07:28:21;2.90;;;2.13;;
19739;SDS011;10027;51.066;13.768;2023-12-20T07:30:48;2.60;;;2.10;;
19739;SDS011;10027;51.066;13.768;2023-12-20T07:33:15;3.23;;;2.30;;
19739;SDS011;10027;51.066;13.768;2023-12-20T07:35:43;3.13;;;2.17;;
19739;SDS011;10027;51.066;13.768;2023-12-20T07:38:11;2.57;;;2.10;;
19739;SDS011;10027;51.066;13.768;2023-12-20T07:40:38;3.63;;;2.43;;
19739;SDS011;10027;51.066;13.768;2023-12-20T07:43:06;2.00;;;1.90;;
19739;SDS011;10027;51.066;13.768;2023-12-20T07:45:33;2.40;;;1.97;;
19739;SDS011;10027;51.066;13.768;2023-12-20T07:48:00;3.57;;;2.30;;
19739;SDS011;10027;51.066;13.768;2023-12-20T07:50:27;2.23;;;2.03;;
19739;SDS011;10027;51.066;13.768;2023-12-20T07:52:55;2.67;;;1.73;;
19739;SDS011;10027;51.066;13.768;2023-12-20T07:55:22;1.97;;;1.77;;
19739;SDS011;10027;51.066;13.768;2023-12-20T07:57:49;2.27;;;1.80;;
19739;SDS011;10027;51.066;13.768;2023-12-20T08:00:17;3.13;;;2.20;;
19739;SDS011;10027;51.066;13.768;2023-12-20T08:02:44;2.37;;;1.97;;
19739;SDS011;10027;51.066;13.768;2023-12-20T08:05:12;2.57;;;1.87;;
19739;SDS011;10027;51.066;13.768;2023-12-20T08:07:41;2.40;;;1.97;;
19739;SDS011;10027;51.066;13.768;2023-12-20T08:10:09;2.53;;;1.93;;
19739;SDS011;10027;51.066;13.768;2023-12-20T08:12:36;3.83;;;1.90;;
19739;SDS011;10027;51.066;13.768;2023-12-20T08:15:03;2.50;;;1.90;;
19739;SDS011;10027;51.066;13.768;2023-12-20T08:17:31;2.97;;;2.00;;
19739;SDS011;10027;51.066;13.768;2023-12-20T08:19:58;3.80;;;1.87;;
19739;SDS011;10027;51.066;13.768;2023-12-20T08:22:26;2.73;;;1.73;;
19739;SDS011;10027;51.066;13.768;2023-12-20T08:24:53;4.27;;;1.40;;
19739;SDS011;10027;51.066;13.768;2023-12-20T08:27:20;2.07;;;1.43;;
19739;SDS011;10027;51.066;13.768;2023-12-20T08:29:47;1.67;;;1.23;;
19739;SDS011;10027;51.066;13.768;2023-12-20T08:32:16;3.87;;;1.60;;
19739;SDS011;10027;51.066;13.768;2023-12-20T08:34:44;2.30;;;1.27;;
19739;SDS011;10027;51.066;13.768;2023-12-20T08:37:11;3.30;;;1.40;;
19739;SDS011;10027;51.066;13.768;2023-12-20T08:39:38;1.50;;;1.20;;
19739;SDS011;10027;51.066;13.768;2023-12-20T08:42:09;1.53;;;1.30;;
19739;SDS011;10027;51.066;13.768;2023-12-20T08:44:36;1.63;;;1.23;;
19739;SDS011;10027;51.066;13.768;2023-12-20T08:47:03;1.77;;;1.33;;
19739;SDS011;10027;51.066;13.768;2023-12-20T08:49:30;2.27;;;1.53;;
19739;SDS011;10027;51.066;13.768;2023-12-20T08:51:58;2.60;;;1.30;;
19739;SDS011;10027;51.066;13.768;2023-12-20T08:54:25;2.00;;;1.20;;
19739;SDS011;10027;51.066;13.768;2023-12-20T08:56:52;2.43;;;1.43;;
19739;SDS011;10027;51.066;13.768;2023-12-20T08:59:19;1.77;;;1.30;;
19739;SDS011;10027;51.066;13.768;2023-12-20T09:01:46;1.80;;;1.00;;
19739;SDS011;10027;51.066;13.768;2023-12-20T09:04:14;4.47;;;1.30;;
19739;SDS011;10027;51.066;13.768;2023-12-20T09:06:42;1.53;;;1.00;;
19739;SDS011;10027;51.066;13.768;2023-12-20T09:09:09;2.03;;;1.10;;
19739;SDS011;10027;51.066;13.768;2023-12-20T09:11:39;1.33;;;1.00;;
19739;SDS011;10027;51.066;13.768;2023-12-20T09:14:07;1.83;;;0.90;;
19739;SDS011;10027;51.066;13.768;2023-12-20T09:16:34;3.37;;;1.00;;
19739;SDS011;10027;51.066;13.768;2023-12-20T09:19:01;1.63;;;1.00;;
19739;SDS011;10027;51.066;13.768;2023-12-20T09:21:28;1.50;;;0.90;;
19739;SDS011;10027;51.066;13.768;2023-12-20T09:23:55;1.30;;;0.90;;
19739;SDS011;10027;51.066;13.768;2023-12-20T09:26:23;2.20;;;1.00;;
19739;SDS011;10027;51.066;13.768;2023-12-20T09:28:50;4.40;;;0.90;;
19739;SDS011;10027;51.066;13.768;2023-12-20T09:31:17;2.13;;;0.73;;
19739;SDS011;10027;51.066;13.768;2023-12-20T09:33:44;1.90;;;0.83;;
19739;SDS011;10027;51.066;13.768;2023-12-20T09:36:11;1.23;;;0.70;;
19739;SDS011;10027;51.066;13.768;2023-12-20T09:38:39;2.97;;;0.73;;
19739;SDS011;10027;51.066;13.768;2023-12-20T09:41:06;2.63;;;1.00;;
19739;SDS011;10027;51.066;13.768;2023-12-20T09:43:35;2.73;;;1.00;;
19739;SDS011;10027;51.066;13.768;2023-12-20T09:46:05;2.37;;;0.90;;
19739;SDS011;10027;51.066;13.768;2023-12-20T09:48:34;3.17;;;1.00;;
19739;SDS011;10027;51.066;13.768;2023-12-20T09:51:01;2.53;;;0.97;;
19739;SDS011;10027;51.066;13.768;2023-12-20T09:53:28;1.77;;;0.90;;
19739;SDS011;10027;51.066;13.768;2023-12-20T09:55:59;1.90;;;0.90;;
19739;SDS011;10027;51.066;13.768;2023-12-20T09:58:26;1.90;;;1.10;;
19739;SDS011;10027;51.066;13.768;2023-12-20T10:00:54;1.37;;;1.00;;
19739;SDS011;10027;51.066;13.768;2023-12-20T10:03:24;2.60;;;1.23;;
19739;SDS011;10027;51.066;13.768;2023-12-20T10:05:52;2.83;;;0.90;;
19739;SDS011;10027;51.066;13.768;2023-12-20T10:08:21;2.50;;;0.87;;
19739;SDS011;10027;51.066;13.768;2023-12-20T10:10:51;1.43;;;1.13;;
19739;SDS011;10027;51.066;13.768;2023-12-20T10:13:18;1.80;;;1.00;;
19739;SDS011;10027;51.066;13.768;2023-12-20T10:15:45;2.53;;;1.20;;
19739;SDS011;10027;51.066;13.768;2023-12-20T10:18:13;2.70;;;1.03;;
19739;SDS011;10027;51.066;13.768;2023-12-20T10:20:40;1.60;;;1.17;;
19739;SDS011;10027;51.066;13.768;2023-12-20T10:23:10;1.43;;;1.13;;
19739;SDS011;10027;51.066;13.768;2023-12-20T10:25:38;2.50;;;0.80;;
19739;SDS011;10027;51.066;13.768;2023-12-20T10:28:23;1.57;;;0.80;;
19739;SDS011;10027;51.066;13.768;2023-12-20T10:30:54;2.93;;;0.90;;
19739;SDS011;10027;51.066;13.768;2023-12-20T10:33:27;2.63;;;1.03;;
19739;SDS011;10027;51.066;13.768;2023-12-20T10:35:55;3.20;;;1.13;;
19739;SDS011;10027;51.066;13.768;2023-12-20T10:38:22;3.23;;;1.37;;
19739;SDS011;10027;51.066;13.768;2023-12-20T10:40:51;1.77;;;0.97;;
19739;SDS011;10027;51.066;13.768;2023-12-20T10:43:21;1.70;;;1.10;;
19739;SDS011;10027;51.066;13.768;2023-12-20T10:45:48;3.43;;;1.00;;
19739;SDS011;10027;51.066;13.768;2023-12-20T10:48:16;1.80;;;1.00;;
19739;SDS011;10027;51.066;13.768;2023-12-20T10:50:43;4.47;;;1.20;;
19739;SDS011;10027;51.066;13.768;2023-12-20T10:53:11;1.97;;;0.87;;
19739;SDS011;10027;51.066;13.768;2023-12-20T10:55:40;2.77;;;1.00;;
19739;SDS011;10027;51.066;13.768;2023-12-20T10:58:08;2.97;;;1.10;;
19739;SDS011;10027;51.066;13.768;2023-12-20T11:00:39;2.73;;;1.10;;
19739;SDS011;10027;51.066;13.768;2023-12-20T11:03:08;3.53;;;0.90;;
19739;SDS011;10027;51.066;13.768;2023-12-20T11:08:49;2.50;;;1.30;;
19739;SDS011;10027;51.066;13.768;2023-12-20T11:11:29;3.57;;;1.23;;
19739;SDS011;10027;51.066;13.768;2023-12-20T11:14:03;1.93;;;0.90;;
19739;SDS011;10027;51.066;13.768;2023-12-20T11:16:32;2.47;;;1.30;;
19739;SDS011;10027;51.066;13.768;2023-12-20T11:19:13;2.63;;;1.00;;
19739;SDS011;10027;51.066;13.768;2023-12-20T11:21:41;5.83;;;1.50;;
19739;SDS011;10027;51.066;13.768;2023-12-20T11:24:09;3.87;;;1.30;;
19739;SDS011;10027;51.066;13.768;2023-12-20T11:26:36;3.20;;;1.13;;
19739;SDS011;10027;51.066;13.768;2023-12-20T11:31:49;3.87;;;1.40;;
19739;SDS011;10027;51.066;13.768;2023-12-20T11:34:17;3.67;;;1.17;;
19739;SDS011;10027;51.066;13.768;2023-12-20T11:36:44;2.60;;;1.00;;
19739;SDS011;10027;51.066;13.768;2023-12-20T11:39:11;3.00;;;1.50;;
19739;SDS011;10027;51.066;13.768;2023-12-20T11:41:44;2.30;;;1.23;;
19739;SDS011;10027;51.066;13.768;2023-12-20T11:44:12;6.40;;;1.57;;
19739;SDS011;10027;51.066;13.768;2023-12-20T11:46:39;2.90;;;1.80;;
19739;SDS011;10027;51.066;13.768;2023-12-20T11:49:06;5.67;;;1.30;;
19739;SDS011;10027;51.066;13.768;2023-12-20T11:51:34;2.20;;;1.20;;
19739;SDS011;10027;51.066;13.768;2023-12-20T11:54:01;3.47;;;1.40;;
19739;SDS011;10027;51.066;13.768;2023-12-20T11:56:28;2.57;;;1.53;;
19739;SDS011;10027;51.066;13.768;2023-12-20T11:58:56;1.70;;;1.30;;
19739;SDS011;10027;51.066;13.768;2023-12-20T12:01:38;3.77;;;1.20;;
19739;SDS011;10027;51.066;13.768;2023-12-20T12:04:05;3.17;;;1.33;;
19739;SDS011;10027;51.066;13.768;2023-12-20T12:06:33;2.50;;;1.47;;
19739;SDS011;10027;51.066;13.768;2023-12-20T12:09:00;3.30;;;1.40;;
19739;SDS011;10027;51.066;13.768;2023-12-20T12:11:28;2.20;;;1.30;;
19739;SDS011;10027;51.066;13.768;2023-12-20T12:13:55;4.00;;;1.20;;
19739;SDS011;10027;51.066;13.768;2023-12-20T12:16:23;2.17;;;1.17;;
19739;SDS011;10027;51.066;13.768;2023-12-20T12:18:57;3.13;;;1.13;;
19739;SDS011;10027;51.066;13.768;2023-12-20T12:21:24;6.63;;;1.30;;
19739;SDS011;10027;51.066;13.768;2023-12-20T12:24:08;3.23;;;1.20;;
19739;SDS011;10027;51.066;13.768;2023-12-20T12:26:35;3.27;;;1.20;;
19739;SDS011;10027;51.066;13.768;2023-12-20T12:29:03;2.60;;;1.10;;
19739;SDS011;10027;51.066;13.768;2023-12-20T12:31:30;4.10;;;1.30;;
19739;SDS011;10027;51.066;13.768;2023-12-20T12:33:57;4.03;;;1.20;;
19739;SDS011;10027;51.066;13.768;2023-12-20T12:36:24;3.90;;;1.30;;
19739;SDS011;10027;51.066;13.768;2023-12-20T12:38:52;1.60;;;1.00;;
19739;SDS011;10027;51.066;13.768;2023-12-20T12:41:19;3.33;;;1.37;;
19739;SDS011;10027;51.066;13.768;2023-12-20T12:43:46;5.57;;;1.47;;
19739;SDS011;10027;51.066;13.768;2023-12-20T12:46:13;2.40;;;1.27;;
19739;SDS011;10027;51.066;13.768;2023-12-20T12:48:40;2.43;;;1.30;;
19739;SDS011;10027;51.066;13.768;2023-12-20T12:51:12;2.40;;;1.27;;
19739;SDS011;10027;51.066;13.768;2023-12-20T12:53:40;2.60;;;1.30;;
19739;SDS011;10027;51.066;13.768;2023-12-20T12:56:07;3.13;;;1.10;;
19739;SDS011;10027;51.066;13.768;2023-12-20T12:58:34;3.80;;;1.27;;
19739;SDS011;10027;51.066;13.768;2023-12-20T13:01:01;2.80;;;1.13;;
19739;SDS011;10027;51.066;13.768;2023-12-20T13:03:30;3.57;;;1.50;;
19739;SDS011;10027;51.066;13.768;2023-12-20T13:05:57;3.60;;;1.47;;
19739;SDS011;10027;51.066;13.768;2023-12-20T13:08:24;3.73;;;1.50;;
19739;SDS011;10027;51.066;13.768;2023-12-20T13:10:52;3.47;;;1.23;;
19739;SDS011;10027;51.066;13.768;2023-12-20T13:13:19;2.00;;;1.20;;
19739;SDS011;10027;51.066;13.768;2023-12-20T13:15:46;3.60;;;1.20;;
19739;SDS011;10027;51.066;13.768;2023-12-20T13:18:17;3.53;;;1.10;;
19739;SDS011;10027;51.066;13.768;2023-12-20T13:20:45;1.37;;;0.90;;
19739;SDS011;10027;51.066;13.768;2023-12-20T13:23:12;1.70;;;0.90;;
19739;SDS011;10027;51.066;13.768;2023-12-20T13:25:40;3.23;;;1.17;;
19739;SDS011;10027;51.066;13.768;2023-12-20T13:28:07;2.47;;;1.07;;
19739;SDS011;10027;51.066;13.768;2023-12-20T13:30:34;3.03;;;1.10;;
19739;SDS011;10027;51.066;13.768;2023-12-20T13:33:02;2.03;;;1.10;;
19739;SDS011;10027;51.066;13.768;2023-12-20T13:35:29;3.33;;;0.97;;
19739;SDS011;10027;51.066;13.768;2023-12-20T13:37:57;3.20;;;0.93;;
19739;SDS011;10027;51.066;13.768;2023-12-20T13:40:24;4.10;;;1.23;;
19739;SDS011;10027;51.066;13.768;2023-12-20T13:42:52;2.23;;;1.10;;
19739;SDS011;10027;51.066;13.768;2023-12-20T13:45:20;4.37;;;1.30;;
19739;SDS011;10027;51.066;13.768;2023-12-20T13:47:47;2.07;;;1.30;;
19739;SDS011;10027;51.066;13.768;2023-12-20T13:50:16;4.60;;;1.60;;
19739;SDS011;10027;51.066;13.768;2023-12-20T13:52:43;2.03;;;1.07;;
19739;SDS011;10027;51.066;13.768;2023-12-20T13:55:10;3.50;;;1.20;;
19739;SDS011;10027;51.066;13.768;2023-12-20T13:57:37;2.87;;;1.07;;
19739;SDS011;10027;51.066;13.768;2023-12-20T14:00:20;2.63;;;1.13;;
19739;SDS011;10027;51.066;13.768;2023-12-20T14:02:47;4.93;;;1.40;;
19739;SDS011;10027;51.066;13.768;2023-12-20T14:05:16;3.30;;;1.30;;
19739;SDS011;10027;51.066;13.768;2023-12-20T14:07:50;2.13;;;1.10;;
19739;SDS011;10027;51.066;13.768;2023-12-20T14:10:18;4.23;;;1.30;;
19739;SDS011;10027;51.066;13.768;2023-12-20T14:12:45;1.17;;;0.80;;
19739;SDS011;10027;51.066;13.768;2023-12-20T14:15:12;2.97;;;1.20;;
19739;SDS011;10027;51.066;13.768;2023-12-20T14:17:40;4.03;;;0.90;;
19739;SDS011;10027;51.066;13.768;2023-12-20T14:20:11;2.87;;;1.00;;
19739;SDS011;10027;51.066;13.768;2023-12-20T14:22:42;3.33;;;1.07;;
19739;SDS011;10027;51.066;13.768;2023-12-20T14:25:11;2.33;;;0.90;;
19739;SDS011;10027;51.066;13.768;2023-12-20T14:27:39;1.77;;;0.80;;
19739;SDS011;10027;51.066;13.768;2023-12-20T14:30:06;2.87;;;0.80;;
19739;SDS011;10027;51.066;13.768;2023-12-20T14:32:34;2.57;;;1.00;;
19739;SDS011;10027;51.066;13.768;2023-12-20T14:35:08;2.53;;;1.20;;
19739;SDS011;10027;51.066;13.768;2023-12-20T14:37:36;2.50;;;1.00;;
19739;SDS011;10027;51.066;13.768;2023-12-20T14:40:08;2.93;;;1.03;;
19739;SDS011;10027;51.066;13.768;2023-12-20T14:42:43;2.17;;;0.90;;